sensor_id;sensor_type;location;lat;lon;timestamp;P1;durP1;ratioP1;P2;durP2;ratioP2
14276;SDS011;7222;57.346;12.150;2022-12-08T00:09:51;4.90;;;3.23;;
14276;SDS011;7222;57.346;12.150;2022-12-08T00:12:18;6.23;;;3.50;;
14276;SDS011;7222;57.346;12.150;2022-12-08T00:14:45;5.80;;;3.03;;
14276;SDS011;7222;57.346;12.150;2022-12-08T00:17:14;4.63;;;2.80;;
14276;SDS011;7222;57.346;12.150;2022-12-08T00:19:42;4.67;;;3.30;;
14276;SDS011;7222;57.346;12.150;2022-12-08T00:22:09;5.10;;;2.93;;
14276;SDS011;7222;57.346;12.150;2022-12-08T00:24:38;5.77;;;3.53;;
14276;SDS011;7222;57.346;12.150;2022-12-08T00:27:08;4.93;;;3.10;;
14276;SDS011;7222;57.346;12.150;2022-12-08T00:29:36;5.17;;;3.27;;
14276;SDS011;7222;57.346;12.150;2022-12-08T00:32:04;4.90;;;3.10;;
14276;SDS011;7222;57.346;12.150;2022-12-08T00:34:32;4.80;;;3.87;;
14276;SDS011;7222;57.346;12.150;2022-12-08T00:36:59;5.57;;;3.43;;
14276;SDS011;7222;57.346;12.150;2022-12-08T00:39:26;6.83;;;3.60;;
14276;SDS011;7222;57.346;12.150;2022-12-08T00:41:53;6.90;;;3.20;;
14276;SDS011;7222;57.346;12.150;2022-12-08T00:44:40;5.50;;;2.83;;
14276;SDS011;7222;57.346;12.150;2022-12-08T00:47:08;4.03;;;2.70;;
14276;SDS011;7222;57.346;12.150;2022-12-08T00:49:35;5.13;;;3.00;;
14276;SDS011;7222;57.346;12.150;2022-12-08T00:52:02;5.63;;;3.13;;
14276;SDS011;7222;57.346;12.150;2022-12-08T00:54:29;5.00;;;3.43;;
14276;SDS011;7222;57.346;12.150;2022-12-08T00:56:56;5.33;;;3.60;;
14276;SDS011;7222;57.346;12.150;2022-12-08T00:59:23;4.63;;;3.00;;
14276;SDS011;7222;57.346;12.150;2022-12-08T01:01:52;3.97;;;2.87;;
14276;SDS011;7222;57.346;12.150;2022-12-08T01:04:19;3.23;;;2.80;;
14276;SDS011;7222;57.346;12.150;2022-12-08T01:06:46;3.93;;;2.73;;
14276;SDS011;7222;57.346;12.150;2022-12-08T01:09:14;6.63;;;3.20;;
14276;SDS011;7222;57.346;12.150;2022-12-08T01:11:42;3.97;;;3.10;;
14276;SDS011;7222;57.346;12.150;2022-12-08T01:14:10;5.13;;;3.30;;
14276;SDS011;7222;57.346;12.150;2022-12-08T01:16:37;5.27;;;3.07;;
14276;SDS011;7222;57.346;12.150;2022-12-08T01:19:07;8.47;;;4.60;;
14276;SDS011;7222;57.346;12.150;2022-12-08T01:21:35;6.77;;;4.33;;
14276;SDS011;7222;57.346;12.150;2022-12-08T01:24:03;5.97;;;3.30;;
14276;SDS011;7222;57.346;12.150;2022-12-08T01:26:30;5.57;;;3.27;;
14276;SDS011;7222;57.346;12.150;2022-12-08T01:28:57;5.20;;;3.47;;
14276;SDS011;7222;57.346;12.150;2022-12-08T01:31:25;5.10;;;3.40;;
14276;SDS011;7222;57.346;12.150;2022-12-08T01:33:52;5.77;;;3.37;;
14276;SDS011;7222;57.346;12.150;2022-12-08T01:36:21;5.20;;;3.73;;
14276;SDS011;7222;57.346;12.150;2022-12-08T01:38:49;4.77;;;3.40;;
14276;SDS011;7222;57.346;12.150;2022-12-08T01:41:18;5.80;;;3.53;;
14276;SDS011;7222;57.346;12.150;2022-12-08T01:43:56;6.23;;;3.37;;
14276;SDS011;7222;57.346;12.150;2022-12-08T01:46:25;5.37;;;3.57;;
14276;SDS011;7222;57.346;12.150;2022-12-08T01:48:55;6.13;;;3.33;;
14276;SDS011;7222;57.346;12.150;2022-12-08T01:51:28;7.30;;;3.60;;
14276;SDS011;7222;57.346;12.150;2022-12-08T01:53:58;7.20;;;3.50;;
14276;SDS011;7222;57.346;12.150;2022-12-08T01:56:26;6.70;;;4.10;;
14276;SDS011;7222;57.346;12.150;2022-12-08T01:58:58;6.87;;;4.00;;
14276;SDS011;7222;57.346;12.150;2022-12-08T02:01:25;6.57;;;4.10;;
14276;SDS011;7222;57.346;12.150;2022-12-08T02:03:54;6.03;;;4.03;;
14276;SDS011;7222;57.346;12.150;2022-12-08T02:06:24;7.80;;;4.00;;
14276;SDS011;7222;57.346;12.150;2022-12-08T02:08:54;6.00;;;4.27;;
14276;SDS011;7222;57.346;12.150;2022-12-08T02:11:22;6.67;;;4.37;;
14276;SDS011;7222;57.346;12.150;2022-12-08T02:13:49;7.70;;;4.00;;
14276;SDS011;7222;57.346;12.150;2022-12-08T02:16:22;6.13;;;4.03;;
14276;SDS011;7222;57.346;12.150;2022-12-08T02:19:04;6.87;;;3.57;;
14276;SDS011;7222;57.346;12.150;2022-12-08T02:21:57;7.00;;;4.27;;
14276;SDS011;7222;57.346;12.150;2022-12-08T02:24:31;6.53;;;3.53;;
14276;SDS011;7222;57.346;12.150;2022-12-08T02:30:10;8.30;;;4.60;;
14276;SDS011;7222;57.346;12.150;2022-12-08T02:35:40;7.60;;;3.90;;
14276;SDS011;7222;57.346;12.150;2022-12-08T02:38:19;7.23;;;3.83;;
14276;SDS011;7222;57.346;12.150;2022-12-08T02:40:54;7.47;;;5.20;;
14276;SDS011;7222;57.346;12.150;2022-12-08T02:43:28;9.93;;;5.40;;
14276;SDS011;7222;57.346;12.150;2022-12-08T02:46:01;6.30;;;4.17;;
14276;SDS011;7222;57.346;12.150;2022-12-08T02:48:31;7.20;;;3.90;;
14276;SDS011;7222;57.346;12.150;2022-12-08T02:51:00;8.50;;;4.13;;
14276;SDS011;7222;57.346;12.150;2022-12-08T02:53:28;6.37;;;3.90;;
14276;SDS011;7222;57.346;12.150;2022-12-08T02:55:59;10.50;;;3.97;;
14276;SDS011;7222;57.346;12.150;2022-12-08T03:01:38;6.40;;;3.60;;
14276;SDS011;7222;57.346;12.150;2022-12-08T03:04:30;7.23;;;3.50;;
14276;SDS011;7222;57.346;12.150;2022-12-08T03:07:09;8.27;;;3.67;;
14276;SDS011;7222;57.346;12.150;2022-12-08T03:09:45;5.57;;;3.80;;
14276;SDS011;7222;57.346;12.150;2022-12-08T03:12:15;8.67;;;3.77;;
14276;SDS011;7222;57.346;12.150;2022-12-08T03:14:47;6.80;;;3.90;;
14276;SDS011;7222;57.346;12.150;2022-12-08T03:17:18;7.23;;;4.03;;
14276;SDS011;7222;57.346;12.150;2022-12-08T03:19:48;4.43;;;2.87;;
14276;SDS011;7222;57.346;12.150;2022-12-08T03:22:18;6.30;;;3.20;;
14276;SDS011;7222;57.346;12.150;2022-12-08T03:24:49;5.60;;;3.40;;
14276;SDS011;7222;57.346;12.150;2022-12-08T03:27:17;7.23;;;3.30;;
14276;SDS011;7222;57.346;12.150;2022-12-08T03:29:47;3.90;;;3.03;;
14276;SDS011;7222;57.346;12.150;2022-12-08T03:32:19;3.87;;;2.67;;
14276;SDS011;7222;57.346;12.150;2022-12-08T03:34:52;6.43;;;3.23;;
14276;SDS011;7222;57.346;12.150;2022-12-08T03:37:21;4.60;;;3.10;;
14276;SDS011;7222;57.346;12.150;2022-12-08T03:39:48;5.63;;;3.60;;
14276;SDS011;7222;57.346;12.150;2022-12-08T03:42:15;8.73;;;3.50;;
14276;SDS011;7222;57.346;12.150;2022-12-08T03:44:42;3.90;;;3.10;;
14276;SDS011;7222;57.346;12.150;2022-12-08T03:47:09;4.63;;;3.10;;
14276;SDS011;7222;57.346;12.150;2022-12-08T03:49:36;7.00;;;3.40;;
14276;SDS011;7222;57.346;12.150;2022-12-08T03:52:03;8.93;;;3.50;;
14276;SDS011;7222;57.346;12.150;2022-12-08T03:54:31;4.23;;;2.50;;
14276;SDS011;7222;57.346;12.150;2022-12-08T03:56:58;4.97;;;3.47;;
14276;SDS011;7222;57.346;12.150;2022-12-08T03:59:25;6.37;;;4.00;;
14276;SDS011;7222;57.346;12.150;2022-12-08T04:01:52;5.73;;;3.23;;
14276;SDS011;7222;57.346;12.150;2022-12-08T04:04:19;6.03;;;2.90;;
14276;SDS011;7222;57.346;12.150;2022-12-08T04:06:46;5.53;;;3.27;;
14276;SDS011;7222;57.346;12.150;2022-12-08T04:09:14;2.90;;;2.43;;
14276;SDS011;7222;57.346;12.150;2022-12-08T04:11:43;3.73;;;2.73;;
14276;SDS011;7222;57.346;12.150;2022-12-08T04:14:10;6.27;;;3.40;;
14276;SDS011;7222;57.346;12.150;2022-12-08T04:16:37;7.00;;;3.60;;
14276;SDS011;7222;57.346;12.150;2022-12-08T04:19:04;4.73;;;3.30;;
14276;SDS011;7222;57.346;12.150;2022-12-08T04:21:31;4.50;;;3.43;;
14276;SDS011;7222;57.346;12.150;2022-12-08T04:23:58;5.13;;;3.43;;
14276;SDS011;7222;57.346;12.150;2022-12-08T04:26:25;4.20;;;3.10;;
14276;SDS011;7222;57.346;12.150;2022-12-08T04:28:54;7.83;;;3.40;;
14276;SDS011;7222;57.346;12.150;2022-12-08T04:31:21;4.13;;;3.20;;
14276;SDS011;7222;57.346;12.150;2022-12-08T04:33:48;5.10;;;3.60;;
14276;SDS011;7222;57.346;12.150;2022-12-08T04:36:15;6.97;;;3.70;;
14276;SDS011;7222;57.346;12.150;2022-12-08T04:38:42;7.30;;;4.00;;
14276;SDS011;7222;57.346;12.150;2022-12-08T04:41:09;5.43;;;4.23;;
14276;SDS011;7222;57.346;12.150;2022-12-08T04:43:36;6.70;;;3.87;;
14276;SDS011;7222;57.346;12.150;2022-12-08T04:46:06;4.70;;;3.80;;
14276;SDS011;7222;57.346;12.150;2022-12-08T04:48:35;7.50;;;3.90;;
14276;SDS011;7222;57.346;12.150;2022-12-08T04:51:03;5.67;;;3.77;;
14276;SDS011;7222;57.346;12.150;2022-12-08T04:53:30;6.53;;;4.50;;
14276;SDS011;7222;57.346;12.150;2022-12-08T04:55:57;5.63;;;4.07;;
14276;SDS011;7222;57.346;12.150;2022-12-08T04:58:25;7.27;;;4.50;;
14276;SDS011;7222;57.346;12.150;2022-12-08T05:00:52;7.73;;;4.93;;
14276;SDS011;7222;57.346;12.150;2022-12-08T05:03:20;6.70;;;4.93;;
14276;SDS011;7222;57.346;12.150;2022-12-08T05:05:47;4.13;;;2.77;;
14276;SDS011;7222;57.346;12.150;2022-12-08T05:08:14;5.87;;;3.40;;
14276;SDS011;7222;57.346;12.150;2022-12-08T05:10:41;4.57;;;3.40;;
14276;SDS011;7222;57.346;12.150;2022-12-08T05:13:08;6.50;;;4.07;;
14276;SDS011;7222;57.346;12.150;2022-12-08T05:15:35;5.13;;;3.30;;
14276;SDS011;7222;57.346;12.150;2022-12-08T05:18:03;5.87;;;2.70;;
14276;SDS011;7222;57.346;12.150;2022-12-08T05:20:32;5.10;;;2.93;;
14276;SDS011;7222;57.346;12.150;2022-12-08T05:22:59;4.13;;;3.07;;
14276;SDS011;7222;57.346;12.150;2022-12-08T05:25:26;5.17;;;3.00;;
14276;SDS011;7222;57.346;12.150;2022-12-08T05:27:53;4.40;;;3.43;;
14276;SDS011;7222;57.346;12.150;2022-12-08T05:30:20;5.90;;;3.57;;
14276;SDS011;7222;57.346;12.150;2022-12-08T05:32:47;7.27;;;3.40;;
14276;SDS011;7222;57.346;12.150;2022-12-08T05:35:14;3.90;;;2.73;;
14276;SDS011;7222;57.346;12.150;2022-12-08T05:37:43;4.63;;;3.30;;
14276;SDS011;7222;57.346;12.150;2022-12-08T05:40:10;6.20;;;3.03;;
14276;SDS011;7222;57.346;12.150;2022-12-08T05:42:37;4.20;;;3.10;;
14276;SDS011;7222;57.346;12.150;2022-12-08T05:45:05;4.70;;;3.00;;
14276;SDS011;7222;57.346;12.150;2022-12-08T05:47:32;3.57;;;2.80;;
14276;SDS011;7222;57.346;12.150;2022-12-08T05:49:59;4.33;;;2.97;;
14276;SDS011;7222;57.346;12.150;2022-12-08T05:52:26;5.40;;;2.93;;
14276;SDS011;7222;57.346;12.150;2022-12-08T05:54:55;3.97;;;3.03;;
14276;SDS011;7222;57.346;12.150;2022-12-08T05:57:22;7.23;;;2.60;;
14276;SDS011;7222;57.346;12.150;2022-12-08T05:59:49;3.87;;;3.10;;
14276;SDS011;7222;57.346;12.150;2022-12-08T06:02:16;6.87;;;3.03;;
14276;SDS011;7222;57.346;12.150;2022-12-08T06:04:43;2.93;;;2.50;;
14276;SDS011;7222;57.346;12.150;2022-12-08T06:07:10;4.93;;;2.83;;
14276;SDS011;7222;57.346;12.150;2022-12-08T06:09:37;3.40;;;2.70;;
14276;SDS011;7222;57.346;12.150;2022-12-08T06:12:06;4.37;;;2.90;;
14276;SDS011;7222;57.346;12.150;2022-12-08T06:14:36;4.57;;;2.80;;
14276;SDS011;7222;57.346;12.150;2022-12-08T06:17:03;3.53;;;2.30;;
14276;SDS011;7222;57.346;12.150;2022-12-08T06:19:30;3.07;;;2.67;;
14276;SDS011;7222;57.346;12.150;2022-12-08T06:21:57;5.80;;;2.97;;
14276;SDS011;7222;57.346;12.150;2022-12-08T06:24:24;4.73;;;2.93;;
14276;SDS011;7222;57.346;12.150;2022-12-08T06:26:51;3.47;;;2.50;;
14276;SDS011;7222;57.346;12.150;2022-12-08T06:29:20;4.63;;;2.60;;
14276;SDS011;7222;57.346;12.150;2022-12-08T06:31:47;2.87;;;2.53;;
14276;SDS011;7222;57.346;12.150;2022-12-08T06:34:14;3.17;;;2.87;;
14276;SDS011;7222;57.346;12.150;2022-12-08T06:36:41;3.60;;;2.83;;
14276;SDS011;7222;57.346;12.150;2022-12-08T06:39:08;3.83;;;3.00;;
14276;SDS011;7222;57.346;12.150;2022-12-08T06:41:35;3.80;;;3.10;;
14276;SDS011;7222;57.346;12.150;2022-12-08T06:44:24;5.47;;;3.03;;
14276;SDS011;7222;57.346;12.150;2022-12-08T06:46:51;3.90;;;3.10;;
14276;SDS011;7222;57.346;12.150;2022-12-08T06:49:18;4.27;;;2.77;;
14276;SDS011;7222;57.346;12.150;2022-12-08T06:51:45;5.13;;;3.17;;
14276;SDS011;7222;57.346;12.150;2022-12-08T06:54:12;5.57;;;2.70;;
14276;SDS011;7222;57.346;12.150;2022-12-08T06:56:40;5.40;;;3.37;;
14276;SDS011;7222;57.346;12.150;2022-12-08T06:59:07;3.20;;;2.80;;
14276;SDS011;7222;57.346;12.150;2022-12-08T07:01:35;4.20;;;3.40;;
14276;SDS011;7222;57.346;12.150;2022-12-08T07:04:03;4.43;;;3.10;;
14276;SDS011;7222;57.346;12.150;2022-12-08T07:06:30;5.50;;;2.97;;
14276;SDS011;7222;57.346;12.150;2022-12-08T07:08:57;4.33;;;3.50;;
14276;SDS011;7222;57.346;12.150;2022-12-08T07:11:24;5.93;;;3.43;;
14276;SDS011;7222;57.346;12.150;2022-12-08T07:13:51;3.77;;;3.20;;
14276;SDS011;7222;57.346;12.150;2022-12-08T07:16:18;6.30;;;3.67;;
14276;SDS011;7222;57.346;12.150;2022-12-08T07:18:47;7.93;;;3.90;;
14276;SDS011;7222;57.346;12.150;2022-12-08T07:21:14;5.27;;;3.07;;
14276;SDS011;7222;57.346;12.150;2022-12-08T07:23:44;4.60;;;3.73;;
14276;SDS011;7222;57.346;12.150;2022-12-08T07:26:12;7.27;;;4.50;;
14276;SDS011;7222;57.346;12.150;2022-12-08T07:28:39;7.07;;;4.93;;
14276;SDS011;7222;57.346;12.150;2022-12-08T07:31:16;6.13;;;4.07;;
14276;SDS011;7222;57.346;12.150;2022-12-08T07:33:46;6.33;;;4.17;;
14276;SDS011;7222;57.346;12.150;2022-12-08T07:36:14;8.87;;;4.83;;
14276;SDS011;7222;57.346;12.150;2022-12-08T07:38:42;10.87;;;5.80;;
14276;SDS011;7222;57.346;12.150;2022-12-08T07:41:12;10.20;;;5.60;;
14276;SDS011;7222;57.346;12.150;2022-12-08T07:43:40;11.60;;;5.63;;
14276;SDS011;7222;57.346;12.150;2022-12-08T07:46:10;8.97;;;6.03;;
14276;SDS011;7222;57.346;12.150;2022-12-08T07:48:37;9.90;;;5.30;;
14276;SDS011;7222;57.346;12.150;2022-12-08T07:51:06;12.60;;;6.60;;
14276;SDS011;7222;57.346;12.150;2022-12-08T07:53:33;14.47;;;8.03;;
14276;SDS011;7222;57.346;12.150;2022-12-08T07:56:00;14.73;;;7.27;;
14276;SDS011;7222;57.346;12.150;2022-12-08T07:58:31;10.97;;;6.90;;
14276;SDS011;7222;57.346;12.150;2022-12-08T08:00:58;12.47;;;6.60;;
14276;SDS011;7222;57.346;12.150;2022-12-08T08:03:25;13.03;;;7.43;;
14276;SDS011;7222;57.346;12.150;2022-12-08T08:05:52;11.23;;;7.37;;
14276;SDS011;7222;57.346;12.150;2022-12-08T08:08:21;12.33;;;7.43;;
14276;SDS011;7222;57.346;12.150;2022-12-08T08:10:48;11.17;;;7.33;;
14276;SDS011;7222;57.346;12.150;2022-12-08T08:13:15;13.07;;;7.33;;
14276;SDS011;7222;57.346;12.150;2022-12-08T08:15:42;11.90;;;7.80;;
14276;SDS011;7222;57.346;12.150;2022-12-08T08:18:09;10.40;;;7.30;;
14276;SDS011;7222;57.346;12.150;2022-12-08T08:20:36;9.67;;;6.07;;
14276;SDS011;7222;57.346;12.150;2022-12-08T08:23:03;12.47;;;8.13;;
14276;SDS011;7222;57.346;12.150;2022-12-08T08:25:31;14.00;;;8.00;;
14276;SDS011;7222;57.346;12.150;2022-12-08T08:27:59;11.13;;;7.57;;
14276;SDS011;7222;57.346;12.150;2022-12-08T08:30:26;15.20;;;9.67;;
14276;SDS011;7222;57.346;12.150;2022-12-08T08:32:53;14.27;;;9.20;;
14276;SDS011;7222;57.346;12.150;2022-12-08T08:35:20;14.80;;;10.27;;
14276;SDS011;7222;57.346;12.150;2022-12-08T08:37:46;13.43;;;8.23;;
14276;SDS011;7222;57.346;12.150;2022-12-08T08:40:14;14.73;;;8.57;;
14276;SDS011;7222;57.346;12.150;2022-12-08T08:42:42;16.77;;;9.77;;
14276;SDS011;7222;57.346;12.150;2022-12-08T08:45:10;13.97;;;8.00;;
14276;SDS011;7222;57.346;12.150;2022-12-08T08:47:37;13.67;;;8.97;;
14276;SDS011;7222;57.346;12.150;2022-12-08T08:50:04;12.67;;;7.77;;
14276;SDS011;7222;57.346;12.150;2022-12-08T08:52:33;15.97;;;8.47;;
14276;SDS011;7222;57.346;12.150;2022-12-08T08:55:00;11.50;;;5.87;;
14276;SDS011;7222;57.346;12.150;2022-12-08T08:57:28;13.07;;;8.70;;
14276;SDS011;7222;57.346;12.150;2022-12-08T08:59:57;11.60;;;7.10;;
14276;SDS011;7222;57.346;12.150;2022-12-08T09:02:24;4.40;;;1.87;;
14276;SDS011;7222;57.346;12.150;2022-12-08T09:04:51;13.07;;;7.57;;
14276;SDS011;7222;57.346;12.150;2022-12-08T09:07:18;11.07;;;7.50;;
14276;SDS011;7222;57.346;12.150;2022-12-08T09:09:45;13.73;;;7.33;;
14276;SDS011;7222;57.346;12.150;2022-12-08T09:12:12;9.00;;;6.20;;
14276;SDS011;7222;57.346;12.150;2022-12-08T09:14:39;10.17;;;6.10;;
14276;SDS011;7222;57.346;12.150;2022-12-08T09:17:08;8.83;;;5.80;;
14276;SDS011;7222;57.346;12.150;2022-12-08T09:19:35;6.77;;;4.17;;
14276;SDS011;7222;57.346;12.150;2022-12-08T09:22:03;9.13;;;5.87;;
14276;SDS011;7222;57.346;12.150;2022-12-08T09:24:30;9.47;;;6.57;;
14276;SDS011;7222;57.346;12.150;2022-12-08T09:26:57;11.73;;;8.07;;
14276;SDS011;7222;57.346;12.150;2022-12-08T09:29:24;11.23;;;6.77;;
14276;SDS011;7222;57.346;12.150;2022-12-08T09:31:51;10.47;;;6.70;;
14276;SDS011;7222;57.346;12.150;2022-12-08T09:34:21;13.80;;;7.83;;
14276;SDS011;7222;57.346;12.150;2022-12-08T09:36:48;12.00;;;7.60;;
14276;SDS011;7222;57.346;12.150;2022-12-08T09:39:15;9.23;;;5.90;;
14276;SDS011;7222;57.346;12.150;2022-12-08T09:41:43;11.10;;;6.27;;
14276;SDS011;7222;57.346;12.150;2022-12-08T09:47:22;6.57;;;2.93;;
14276;SDS011;7222;57.346;12.150;2022-12-08T09:49:55;3.73;;;1.87;;
14276;SDS011;7222;57.346;12.150;2022-12-08T09:52:29;5.27;;;1.90;;
14276;SDS011;7222;57.346;12.150;2022-12-08T09:55:02;3.10;;;1.80;;
14276;SDS011;7222;57.346;12.150;2022-12-08T09:57:36;2.83;;;1.77;;
14276;SDS011;7222;57.346;12.150;2022-12-08T10:00:04;4.23;;;2.00;;
14276;SDS011;7222;57.346;12.150;2022-12-08T10:02:32;6.30;;;2.10;;
14276;SDS011;7222;57.346;12.150;2022-12-08T10:05:01;3.30;;;1.63;;
14276;SDS011;7222;57.346;12.150;2022-12-08T10:07:31;2.53;;;1.57;;
14276;SDS011;7222;57.346;12.150;2022-12-08T10:10:05;2.93;;;1.77;;
14276;SDS011;7222;57.346;12.150;2022-12-08T10:12:42;3.40;;;1.40;;
14276;SDS011;7222;57.346;12.150;2022-12-08T10:15:25;5.17;;;1.70;;
14276;SDS011;7222;57.346;12.150;2022-12-08T10:18:09;2.10;;;1.50;;
14276;SDS011;7222;57.346;12.150;2022-12-08T10:20:42;4.10;;;1.30;;
14276;SDS011;7222;57.346;12.150;2022-12-08T10:23:22;3.07;;;1.20;;
14276;SDS011;7222;57.346;12.150;2022-12-08T10:25:56;4.17;;;1.23;;
14276;SDS011;7222;57.346;12.150;2022-12-08T10:28:26;4.50;;;1.37;;
14276;SDS011;7222;57.346;12.150;2022-12-08T10:30:53;1.63;;;1.47;;
14276;SDS011;7222;57.346;12.150;2022-12-08T10:33:21;5.03;;;1.53;;
14276;SDS011;7222;57.346;12.150;2022-12-08T10:35:50;9.23;;;4.33;;
14276;SDS011;7222;57.346;12.150;2022-12-08T10:38:23;4.27;;;2.47;;
14276;SDS011;7222;57.346;12.150;2022-12-08T10:40:56;2.87;;;1.33;;
14276;SDS011;7222;57.346;12.150;2022-12-08T10:43:28;3.03;;;1.50;;
14276;SDS011;7222;57.346;12.150;2022-12-08T10:46:05;2.97;;;1.13;;
14276;SDS011;7222;57.346;12.150;2022-12-08T10:48:34;2.27;;;1.10;;
14276;SDS011;7222;57.346;12.150;2022-12-08T10:51:03;3.50;;;1.40;;
14276;SDS011;7222;57.346;12.150;2022-12-08T10:53:30;3.57;;;1.30;;
14276;SDS011;7222;57.346;12.150;2022-12-08T10:56:06;2.60;;;1.23;;
14276;SDS011;7222;57.346;12.150;2022-12-08T10:58:40;3.60;;;1.23;;
14276;SDS011;7222;57.346;12.150;2022-12-08T11:01:09;1.97;;;1.40;;
14276;SDS011;7222;57.346;12.150;2022-12-08T11:03:40;1.67;;;1.37;;
14276;SDS011;7222;57.346;12.150;2022-12-08T11:06:14;2.53;;;1.17;;
14276;SDS011;7222;57.346;12.150;2022-12-08T11:08:47;2.63;;;1.30;;
14276;SDS011;7222;57.346;12.150;2022-12-08T11:11:16;2.53;;;0.90;;
14276;SDS011;7222;57.346;12.150;2022-12-08T11:13:44;2.97;;;1.23;;
14276;SDS011;7222;57.346;12.150;2022-12-08T11:16:15;2.37;;;1.60;;
14276;SDS011;7222;57.346;12.150;2022-12-08T11:18:44;3.33;;;1.20;;
14276;SDS011;7222;57.346;12.150;2022-12-08T11:21:16;2.00;;;1.17;;
14276;SDS011;7222;57.346;12.150;2022-12-08T11:23:46;2.67;;;1.20;;
14276;SDS011;7222;57.346;12.150;2022-12-08T11:26:17;2.13;;;1.47;;
14276;SDS011;7222;57.346;12.150;2022-12-08T11:28:54;2.00;;;1.10;;
14276;SDS011;7222;57.346;12.150;2022-12-08T11:31:24;2.37;;;1.33;;
14276;SDS011;7222;57.346;12.150;2022-12-08T11:33:55;3.17;;;1.63;;
14276;SDS011;7222;57.346;12.150;2022-12-08T11:36:25;3.10;;;1.37;;
14276;SDS011;7222;57.346;12.150;2022-12-08T11:38:58;3.57;;;1.43;;
14276;SDS011;7222;57.346;12.150;2022-12-08T11:41:28;2.30;;;0.97;;
14276;SDS011;7222;57.346;12.150;2022-12-08T11:44:00;2.67;;;1.00;;
14276;SDS011;7222;57.346;12.150;2022-12-08T11:46:33;3.23;;;1.20;;
14276;SDS011;7222;57.346;12.150;2022-12-08T11:49:05;4.20;;;1.33;;
14276;SDS011;7222;57.346;12.150;2022-12-08T11:51:38;6.00;;;1.80;;
14276;SDS011;7222;57.346;12.150;2022-12-08T11:54:12;3.23;;;1.70;;
14276;SDS011;7222;57.346;12.150;2022-12-08T11:56:44;4.17;;;2.40;;
14276;SDS011;7222;57.346;12.150;2022-12-08T11:59:17;4.90;;;1.40;;
14276;SDS011;7222;57.346;12.150;2022-12-08T12:01:48;3.03;;;1.43;;
14276;SDS011;7222;57.346;12.150;2022-12-08T12:04:17;2.70;;;1.60;;
14276;SDS011;7222;57.346;12.150;2022-12-08T12:07:07;3.63;;;1.40;;
14276;SDS011;7222;57.346;12.150;2022-12-08T12:10:00;1.87;;;1.30;;
14276;SDS011;7222;57.346;12.150;2022-12-08T12:12:51;4.70;;;1.10;;
14276;SDS011;7222;57.346;12.150;2022-12-08T12:15:31;4.33;;;1.40;;
14276;SDS011;7222;57.346;12.150;2022-12-08T12:18:18;4.17;;;1.40;;
14276;SDS011;7222;57.346;12.150;2022-12-08T12:20:51;3.23;;;1.33;;
14276;SDS011;7222;57.346;12.150;2022-12-08T12:23:23;2.77;;;1.10;;
14276;SDS011;7222;57.346;12.150;2022-12-08T12:25:58;3.73;;;1.23;;
14276;SDS011;7222;57.346;12.150;2022-12-08T12:28:27;2.50;;;1.30;;
14276;SDS011;7222;57.346;12.150;2022-12-08T12:31:03;5.13;;;1.60;;
14276;SDS011;7222;57.346;12.150;2022-12-08T12:33:33;2.70;;;1.10;;
14276;SDS011;7222;57.346;12.150;2022-12-08T12:36:01;3.97;;;1.30;;
14276;SDS011;7222;57.346;12.150;2022-12-08T12:38:33;5.43;;;1.67;;
14276;SDS011;7222;57.346;12.150;2022-12-08T12:41:21;2.27;;;1.10;;
14276;SDS011;7222;57.346;12.150;2022-12-08T12:44:07;2.57;;;1.00;;
14276;SDS011;7222;57.346;12.150;2022-12-08T12:47:03;3.50;;;1.37;;
14276;SDS011;7222;57.346;12.150;2022-12-08T12:49:52;5.13;;;1.13;;
14276;SDS011;7222;57.346;12.150;2022-12-08T12:52:41;5.17;;;1.43;;
14276;SDS011;7222;57.346;12.150;2022-12-08T12:58:34;3.53;;;1.40;;
14276;SDS011;7222;57.346;12.150;2022-12-08T13:04:03;3.13;;;1.10;;
14276;SDS011;7222;57.346;12.150;2022-12-08T13:06:34;2.17;;;1.23;;
14276;SDS011;7222;57.346;12.150;2022-12-08T13:09:04;4.03;;;1.30;;
14276;SDS011;7222;57.346;12.150;2022-12-08T13:11:44;3.50;;;1.43;;
14276;SDS011;7222;57.346;12.150;2022-12-08T13:14:25;3.43;;;1.40;;
14276;SDS011;7222;57.346;12.150;2022-12-08T13:16:58;2.37;;;1.27;;
14276;SDS011;7222;57.346;12.150;2022-12-08T13:19:29;5.00;;;1.50;;
14276;SDS011;7222;57.346;12.150;2022-12-08T13:21:57;2.47;;;1.23;;
14276;SDS011;7222;57.346;12.150;2022-12-08T13:24:29;4.13;;;0.97;;
14276;SDS011;7222;57.346;12.150;2022-12-08T13:33:07;5.13;;;2.47;;
14276;SDS011;7222;57.346;12.150;2022-12-08T13:35:40;4.47;;;1.53;;
14276;SDS011;7222;57.346;12.150;2022-12-08T13:38:14;4.83;;;1.40;;
14276;SDS011;7222;57.346;12.150;2022-12-08T13:40:44;4.50;;;1.43;;
14276;SDS011;7222;57.346;12.150;2022-12-08T13:43:16;3.93;;;1.23;;
14276;SDS011;7222;57.346;12.150;2022-12-08T13:45:48;5.20;;;1.63;;
14276;SDS011;7222;57.346;12.150;2022-12-08T13:48:17;4.70;;;1.47;;
14276;SDS011;7222;57.346;12.150;2022-12-08T13:50:51;4.17;;;1.10;;
14276;SDS011;7222;57.346;12.150;2022-12-08T13:53:22;2.70;;;1.40;;
14276;SDS011;7222;57.346;12.150;2022-12-08T13:55:54;3.97;;;1.93;;
14276;SDS011;7222;57.346;12.150;2022-12-08T13:58:26;2.97;;;1.50;;
14276;SDS011;7222;57.346;12.150;2022-12-08T14:00:56;4.23;;;1.43;;
14276;SDS011;7222;57.346;12.150;2022-12-08T14:03:29;3.83;;;1.43;;
14276;SDS011;7222;57.346;12.150;2022-12-08T14:05:56;3.50;;;1.70;;
14276;SDS011;7222;57.346;12.150;2022-12-08T14:08:25;5.70;;;2.20;;
14276;SDS011;7222;57.346;12.150;2022-12-08T14:10:57;3.87;;;1.90;;
14276;SDS011;7222;57.346;12.150;2022-12-08T14:13:31;5.63;;;1.90;;
14276;SDS011;7222;57.346;12.150;2022-12-08T14:15:59;2.93;;;1.50;;
14276;SDS011;7222;57.346;12.150;2022-12-08T14:18:27;2.47;;;1.40;;
14276;SDS011;7222;57.346;12.150;2022-12-08T14:20:59;3.20;;;1.90;;
14276;SDS011;7222;57.346;12.150;2022-12-08T14:23:27;4.45;;;1.50;;
14276;SDS011;7222;57.346;12.150;2022-12-08T14:25:54;4.43;;;1.60;;
14276;SDS011;7222;57.346;12.150;2022-12-08T14:28:22;3.37;;;1.60;;
14276;SDS011;7222;57.346;12.150;2022-12-08T14:30:51;3.53;;;1.40;;
14276;SDS011;7222;57.346;12.150;2022-12-08T14:33:21;2.77;;;1.33;;
14276;SDS011;7222;57.346;12.150;2022-12-08T14:35:48;3.43;;;1.50;;
14276;SDS011;7222;57.346;12.150;2022-12-08T14:38:18;5.57;;;1.70;;
14276;SDS011;7222;57.346;12.150;2022-12-08T14:40:46;3.33;;;1.60;;
14276;SDS011;7222;57.346;12.150;2022-12-08T14:43:15;3.70;;;1.60;;
14276;SDS011;7222;57.346;12.150;2022-12-08T14:45:48;3.33;;;1.43;;
14276;SDS011;7222;57.346;12.150;2022-12-08T14:48:19;3.30;;;1.43;;
14276;SDS011;7222;57.346;12.150;2022-12-08T14:50:57;3.50;;;1.40;;
14276;SDS011;7222;57.346;12.150;2022-12-08T14:53:30;4.40;;;1.90;;
14276;SDS011;7222;57.346;12.150;2022-12-08T14:56:05;6.00;;;2.00;;
14276;SDS011;7222;57.346;12.150;2022-12-08T14:58:34;2.30;;;1.77;;
14276;SDS011;7222;57.346;12.150;2022-12-08T15:01:02;2.67;;;1.67;;
14276;SDS011;7222;57.346;12.150;2022-12-08T15:03:36;4.63;;;2.10;;
14276;SDS011;7222;57.346;12.150;2022-12-08T15:06:04;3.27;;;1.70;;
14276;SDS011;7222;57.346;12.150;2022-12-08T15:08:32;4.13;;;1.90;;
14276;SDS011;7222;57.346;12.150;2022-12-08T15:11:25;5.37;;;2.13;;
14276;SDS011;7222;57.346;12.150;2022-12-08T15:13:56;4.10;;;1.93;;
14276;SDS011;7222;57.346;12.150;2022-12-08T15:16:24;3.47;;;1.73;;
14276;SDS011;7222;57.346;12.150;2022-12-08T15:21:52;6.27;;;2.03;;
14276;SDS011;7222;57.346;12.150;2022-12-08T15:24:21;4.57;;;2.33;;
14276;SDS011;7222;57.346;12.150;2022-12-08T15:26:51;4.27;;;2.03;;
14276;SDS011;7222;57.346;12.150;2022-12-08T15:29:19;3.30;;;2.00;;
14276;SDS011;7222;57.346;12.150;2022-12-08T15:31:48;4.90;;;2.07;;
14276;SDS011;7222;57.346;12.150;2022-12-08T15:34:16;4.20;;;2.17;;
14276;SDS011;7222;57.346;12.150;2022-12-08T15:36:44;6.27;;;2.13;;
14276;SDS011;7222;57.346;12.150;2022-12-08T15:39:19;2.47;;;1.80;;